Time,TemperatureF,DewpointF,PressureIn,WindDirection,WindDirectionDegrees,WindSpeedMPH,WindSpeedGustMPH,Humidity,HourlyPrecipIn,Conditions,Clouds,dailyrainin,SoftwareType,DateUTC
2013-10-19 00:01:00,43.9,33.7,29.93,South,191,4.0,5.8,67,0.00,,---,0.00,VWS V13.01,2013-10-19 04:01:00,
2013-10-19 00:03:00,43.7,33.5,29.93,South,191,4.9,5.4,67,0.00,,---,0.00,VWS V13.01,2013-10-19 04:03:00,
2013-10-19 00:08:00,43.7,33.8,29.93,SSW,192,4.5,5.4,68,0.00,,---,0.00,VWS V13.01,2013-10-19 04:08:00,
2013-10-19 00:10:00,43.7,33.8,29.93,SSW,192,4.5,5.8,68,0.00,,---,0.00,VWS V13.01,2013-10-19 04:10:00,
2013-10-19 00:15:00,43.7,34.2,29.93,SSW,206,4.5,5.8,69,0.00,,---,0.00,VWS V13.01,2013-10-19 04:15:00,
2013-10-19 00:19:00,43.7,34.2,29.93,South,184,5.4,6.3,69,0.00,,---,0.00,VWS V13.01,2013-10-19 04:19:00,
2013-10-19 00:24:00,43.7,34.2,29.93,South,170,5.4,6.7,69,0.00,,---,0.00,VWS V13.01,2013-10-19 04:24:00,
2013-10-19 00:29:00,43.9,34.7,29.93,SSW,193,3.6,5.8,70,0.00,,---,0.00,VWS V13.01,2013-10-19 04:29:00,
2013-10-19 00:34:00,43.9,34.7,29.93,South,179,4.5,5.4,70,0.00,,---,0.00,VWS V13.01,2013-10-19 04:34:00,
2013-10-19 00:38:00,43.9,34.4,29.93,South,189,4.0,4.9,69,0.00,,---,0.00,VWS V13.01,2013-10-19 04:38:00,
2013-10-19 00:43:00,43.7,34.2,29.93,South,189,4.5,4.9,69,0.00,,---,0.00,VWS V13.01,2013-10-19 04:43:00,
2013-10-19 00:48:00,43.7,34.2,29.91,South,183,4.0,4.5,69,0.00,,---,0.00,VWS V13.01,2013-10-19 04:48:00,
2013-10-19 00:53:00,43.7,34.2,29.91,South,184,3.6,4.5,69,0.00,,---,0.00,VWS V13.01,2013-10-19 04:53:00,
2013-10-19 00:58:00,43.9,34.7,29.91,South,184,0.0,3.6,70,0.00,,---,0.00,VWS V13.01,2013-10-19 04:58:00,
2013-10-19 01:03:00,44.1,34.9,29.91,South,184,0.0,0.0,70,0.00,,---,0.00,VWS V13.01,2013-10-19 05:03:00,
2013-10-19 01:08:00,43.9,34.4,29.91,South,184,4.9,4.9,69,0.00,,---,0.00,VWS V13.01,2013-10-19 05:08:00,
2013-10-19 01:13:00,43.7,34.2,29.91,South,185,4.5,4.5,69,0.00,,---,0.00,VWS V13.01,2013-10-19 05:13:00,
2013-10-19 01:18:00,43.5,34.0,29.91,South,186,5.4,5.4,69,0.00,,---,0.00,VWS V13.01,2013-10-19 05:18:00,
2013-10-19 01:23:00,43.5,34.4,29.91,South,190,4.5,4.9,70,0.00,,---,0.00,VWS V13.01,2013-10-19 05:23:00,
2013-10-19 01:28:00,43.5,34.4,29.91,South,190,4.5,4.5,70,0.00,,---,0.00,VWS V13.01,2013-10-19 05:28:00,
2013-10-19 01:33:00,43.7,34.6,29.91,SSW,196,5.4,6.3,70,0.00,,---,0.00,VWS V13.01,2013-10-19 05:33:00,
2013-10-19 01:38:00,43.7,34.6,29.91,South,172,6.7,6.7,70,0.00,,---,0.00,VWS V13.01,2013-10-19 05:38:00,
2013-10-19 01:43:00,43.7,34.9,29.91,SSW,202,4.0,5.8,71,0.00,,---,0.00,VWS V13.01,2013-10-19 05:43:00,
2013-10-19 01:48:00,43.7,34.9,29.91,SSW,193,6.3,6.3,71,0.00,,---,0.00,VWS V13.01,2013-10-19 05:48:00,
2013-10-19 01:53:00,43.9,35.1,29.91,SSW,202,5.8,6.3,71,0.00,,---,0.00,VWS V13.01,2013-10-19 05:53:00,
2013-10-19 01:58:00,44.1,35.6,29.91,SSW,194,6.3,6.7,72,0.00,,---,0.00,VWS V13.01,2013-10-19 05:58:00,
2013-10-19 02:03:00,44.1,35.6,29.91,SSW,206,4.5,5.4,72,0.00,,---,0.00,VWS V13.01,2013-10-19 06:03:00,
2013-10-19 02:08:00,44.2,35.8,29.91,SSW,209,5.4,5.4,72,0.00,,---,0.00,VWS V13.01,2013-10-19 06:08:00,
2013-10-19 02:13:00,44.2,35.8,29.91,SSW,192,5.8,6.7,72,0.00,,---,0.00,VWS V13.01,2013-10-19 06:13:00,
2013-10-19 02:18:00,44.2,35.8,29.91,South,181,4.0,5.4,72,0.00,,---,0.00,VWS V13.01,2013-10-19 06:18:00,
2013-10-19 02:23:00,44.4,36.0,29.91,SSE,166,4.5,6.3,72,0.00,,---,0.00,VWS V13.01,2013-10-19 06:23:00,
2013-10-19 02:28:00,44.4,36.0,29.91,South,188,4.5,5.8,72,0.00,,---,0.00,VWS V13.01,2013-10-19 06:28:00,
2013-10-19 02:33:00,44.4,36.0,29.91,SSW,193,4.9,4.9,72,0.00,,---,0.00,VWS V13.01,2013-10-19 06:33:00,
2013-10-19 02:38:00,44.6,36.5,29.91,South,189,5.4,6.3,73,0.00,,---,0.00,VWS V13.01,2013-10-19 06:38:00,
2013-10-19 02:43:00,44.6,36.5,29.91,SSW,193,6.3,6.7,73,0.00,,---,0.00,VWS V13.01,2013-10-19 06:43:00,
2013-10-19 02:48:00,44.6,36.5,29.91,South,176,5.8,6.7,73,0.00,,---,0.00,VWS V13.01,2013-10-19 06:48:00,
2013-10-19 02:53:00,44.6,36.5,29.91,SSW,197,4.9,5.8,73,0.00,,---,0.00,VWS V13.01,2013-10-19 06:53:00,
2013-10-19 02:58:00,44.8,36.7,29.91,SSW,197,4.5,5.4,73,0.00,,---,0.00,VWS V13.01,2013-10-19 06:58:00,
2013-10-19 03:03:00,44.8,36.7,29.91,SSW,199,4.9,6.7,73,0.00,,---,0.00,VWS V13.01,2013-10-19 07:03:00,
2013-10-19 03:08:00,44.8,36.7,29.91,South,185,2.7,5.8,73,0.00,,---,0.00,VWS V13.01,2013-10-19 07:08:00,
2013-10-19 03:13:00,45.0,36.8,29.91,South,186,4.5,4.9,73,0.00,,---,0.00,VWS V13.01,2013-10-19 07:13:00,
2013-10-19 03:18:00,45.0,36.8,29.91,South,181,5.8,5.8,73,0.00,,---,0.00,VWS V13.01,2013-10-19 07:18:00,
2013-10-19 03:23:00,45.0,36.8,29.91,SSW,204,4.5,5.4,73,0.00,,---,0.00,VWS V13.01,2013-10-19 07:23:00,
2013-10-19 03:28:00,45.0,36.8,29.91,SSW,194,4.0,6.3,73,0.00,,---,0.00,VWS V13.01,2013-10-19 07:28:00,
2013-10-19 03:33:00,45.0,36.8,29.91,South,186,0.0,4.0,73,0.00,,---,0.00,VWS V13.01,2013-10-19 07:33:00,
2013-10-19 03:38:00,45.0,36.8,29.91,South,176,4.0,5.4,73,0.00,,---,0.00,VWS V13.01,2013-10-19 07:38:00,
2013-10-19 03:43:00,45.1,37.4,29.91,South,176,4.5,5.8,74,0.00,,---,0.00,VWS V13.01,2013-10-19 07:43:00,
2013-10-19 03:48:00,45.1,37.4,29.88,South,178,3.6,4.0,74,0.00,,---,0.00,VWS V13.01,2013-10-19 07:48:00,
2013-10-19 03:53:00,45.1,37.4,29.88,South,184,3.6,4.5,74,0.00,,---,0.00,VWS V13.01,2013-10-19 07:53:00,
2013-10-19 03:58:00,45.3,37.5,29.88,South,189,3.6,4.0,74,0.00,,---,0.00,VWS V13.01,2013-10-19 07:58:00,
2013-10-19 04:03:00,45.3,37.5,29.88,South,189,4.0,4.5,74,0.00,,---,0.00,VWS V13.01,2013-10-19 08:03:00,
2013-10-19 04:08:00,45.3,37.9,29.88,South,174,5.8,6.7,75,0.00,,---,0.00,VWS V13.01,2013-10-19 08:08:00,
2013-10-19 04:13:00,45.3,37.9,29.88,South,180,4.0,6.3,75,0.00,,---,0.00,VWS V13.01,2013-10-19 08:13:00,
2013-10-19 04:18:00,45.3,37.9,29.88,South,185,3.1,5.4,75,0.00,,---,0.00,VWS V13.01,2013-10-19 08:18:00,
2013-10-19 04:23:00,45.3,38.2,29.88,South,186,4.0,4.5,76,0.00,,---,0.00,VWS V13.01,2013-10-19 08:23:00,
2013-10-19 04:28:00,45.3,38.2,29.88,South,188,3.1,4.9,76,0.00,,---,0.00,VWS V13.01,2013-10-19 08:28:00,
2013-10-19 04:33:00,45.3,38.2,29.88,South,186,4.9,6.7,76,0.00,,---,0.00,VWS V13.01,2013-10-19 08:33:00,
2013-10-19 04:38:00,45.3,38.2,29.88,South,180,5.4,5.4,76,0.00,,---,0.00,VWS V13.01,2013-10-19 08:38:00,
2013-10-19 04:43:00,45.3,38.2,29.88,SSW,192,4.9,6.7,76,0.00,,---,0.00,VWS V13.01,2013-10-19 08:43:00,
2013-10-19 04:48:00,45.1,38.4,29.88,South,190,5.8,6.3,77,0.00,,---,0.00,VWS V13.01,2013-10-19 08:48:00,
2013-10-19 04:53:00,45.1,38.4,29.88,SSW,205,6.7,7.8,77,0.00,,---,0.00,VWS V13.01,2013-10-19 08:53:00,
2013-10-19 04:58:00,45.1,38.4,29.88,SSW,192,5.4,5.8,77,0.00,,---,0.00,VWS V13.01,2013-10-19 08:58:00,
2013-10-19 05:03:00,45.1,38.7,29.88,SSE,168,4.5,7.8,78,0.00,,---,0.00,VWS V13.01,2013-10-19 09:03:00,
2013-10-19 05:08:00,45.3,38.9,29.88,SSW,202,5.4,5.4,78,0.00,,---,0.00,VWS V13.01,2013-10-19 09:08:00,
2013-10-19 05:13:00,45.3,39.2,29.88,South,177,5.4,6.9,79,0.00,,---,0.00,VWS V13.01,2013-10-19 09:13:00,
2013-10-19 05:18:00,45.3,39.2,29.85,SSW,194,4.5,6.3,79,0.00,,---,0.00,VWS V13.01,2013-10-19 09:18:00,
2013-10-19 05:23:00,45.3,39.2,29.85,South,178,5.4,6.3,79,0.00,,---,0.00,VWS V13.01,2013-10-19 09:23:00,
2013-10-19 05:28:00,45.3,39.5,29.85,South,178,6.3,6.7,80,0.00,,---,0.00,VWS V13.01,2013-10-19 09:28:00,
2013-10-19 05:33:00,45.3,39.5,29.85,SE,143,4.5,6.7,80,0.00,,---,0.00,VWS V13.01,2013-10-19 09:33:00,
2013-10-19 05:38:00,45.5,40.0,29.85,South,181,3.1,6.7,81,0.00,,---,0.00,VWS V13.01,2013-10-19 09:38:00,
2013-10-19 05:43:00,45.5,40.0,29.85,South,189,3.6,6.7,81,0.00,,---,0.00,VWS V13.01,2013-10-19 09:43:00,
2013-10-19 05:48:00,45.7,40.5,29.85,SSW,192,4.0,6.3,82,0.00,,---,0.00,VWS V13.01,2013-10-19 09:48:00,
2013-10-19 05:53:00,45.7,40.5,29.85,South,182,4.0,6.7,82,0.00,,---,0.00,VWS V13.01,2013-10-19 09:53:00,
2013-10-19 05:58:00,45.5,40.3,29.85,SSW,196,6.7,6.9,82,0.00,,---,0.00,VWS V13.01,2013-10-19 09:58:00,
2013-10-19 06:03:00,45.5,40.3,29.85,SSW,197,5.8,7.4,82,0.00,,---,0.00,VWS V13.01,2013-10-19 10:03:00,
2013-10-19 06:08:00,45.9,41.0,29.85,SW,215,4.9,6.7,83,0.00,,---,0.00,VWS V13.01,2013-10-19 10:08:00,
2013-10-19 06:13:00,45.9,41.0,29.85,SSW,193,6.3,7.4,83,0.00,,---,0.00,VWS V13.01,2013-10-19 10:13:00,
2013-10-19 06:18:00,45.7,40.8,29.85,SSW,192,6.3,8.7,83,0.00,,---,0.00,VWS V13.01,2013-10-19 10:18:00,
2013-10-19 06:23:00,45.7,40.8,29.85,SW,214,4.9,7.4,83,0.00,,---,0.00,VWS V13.01,2013-10-19 10:23:00,
2013-10-19 06:28:00,45.7,40.8,29.85,South,188,4.9,6.3,83,0.00,,---,0.00,VWS V13.01,2013-10-19 10:28:00,
2013-10-19 06:33:00,45.7,41.1,29.85,South,190,4.0,7.8,84,0.00,,---,0.00,VWS V13.01,2013-10-19 10:33:00,
2013-10-19 06:38:00,45.7,41.1,29.85,SSW,194,4.9,6.7,84,0.00,,---,0.00,VWS V13.01,2013-10-19 10:38:00,
2013-10-19 06:43:00,45.7,41.1,29.85,SSW,199,5.8,6.7,84,0.00,,---,0.00,VWS V13.01,2013-10-19 10:43:00,
2013-10-19 06:48:00,45.5,41.0,29.85,SW,218,4.5,6.7,84,0.00,,---,0.00,VWS V13.01,2013-10-19 10:48:00,
2013-10-19 06:53:00,45.5,41.0,29.85,SSW,200,5.8,7.8,84,0.00,,---,0.00,VWS V13.01,2013-10-19 10:53:00,
2013-10-19 06:58:00,45.7,41.4,29.85,South,181,4.5,6.3,85,0.00,,---,0.00,VWS V13.01,2013-10-19 10:58:00,
2013-10-19 07:03:00,45.7,41.4,29.85,South,178,4.9,6.7,85,0.00,,---,0.00,VWS V13.01,2013-10-19 11:03:00,
2013-10-19 07:08:00,45.5,41.3,29.85,South,180,6.7,9.6,85,0.00,,---,0.00,VWS V13.01,2013-10-19 11:08:00,
2013-10-19 07:13:00,45.5,41.3,29.85,SSW,204,5.4,6.9,85,0.00,,---,0.00,VWS V13.01,2013-10-19 11:13:00,
2013-10-19 07:18:00,45.5,41.3,29.85,SSW,193,7.4,9.2,85,0.00,,---,0.00,VWS V13.01,2013-10-19 11:18:00,
2013-10-19 07:23:00,45.5,41.3,29.85,South,181,6.3,7.4,85,0.00,,---,0.00,VWS V13.01,2013-10-19 11:23:00,
2013-10-19 07:28:00,45.5,41.3,29.85,South,191,7.4,7.4,85,0.00,,---,0.00,VWS V13.01,2013-10-19 11:28:00,
2013-10-19 07:33:00,45.7,41.7,29.85,SSW,197,5.4,7.8,86,0.00,,---,0.00,VWS V13.01,2013-10-19 11:33:00,
2013-10-19 07:38:00,45.7,41.7,29.85,South,179,5.8,7.4,86,0.00,,---,0.00,VWS V13.01,2013-10-19 11:38:00,
2013-10-19 07:43:00,45.7,41.7,29.85,South,177,6.3,6.9,86,0.00,,---,0.00,VWS V13.01,2013-10-19 11:43:00,
2013-10-19 07:48:00,45.7,41.7,29.85,South,176,5.4,6.9,86,0.00,,---,0.00,VWS V13.01,2013-10-19 11:48:00,
2013-10-19 07:53:00,45.7,41.7,29.85,South,187,4.9,6.3,86,0.00,,---,0.00,VWS V13.01,2013-10-19 11:53:00,
2013-10-19 07:58:00,45.7,41.7,29.85,SSW,211,5.4,7.4,86,0.00,,---,0.00,VWS V13.01,2013-10-19 11:58:00,
2013-10-19 08:03:00,45.9,41.9,29.85,SSE,164,7.8,9.2,86,0.00,,---,0.00,VWS V13.01,2013-10-19 12:03:00,
2013-10-19 08:08:00,45.7,41.7,29.85,South,183,5.8,6.7,86,0.00,,---,0.00,VWS V13.01,2013-10-19 12:08:00,
2013-10-19 08:13:00,45.7,41.7,29.85,SW,227,6.3,7.4,86,0.00,,---,0.00,VWS V13.01,2013-10-19 12:13:00,
2013-10-19 08:18:00,45.7,42.0,29.85,South,176,6.3,7.4,87,0.00,,---,0.00,VWS V13.01,2013-10-19 12:18:00,
2013-10-19 08:23:00,45.7,42.0,29.85,SSW,192,6.7,6.9,87,0.00,,---,0.00,VWS V13.01,2013-10-19 12:23:00,
2013-10-19 08:28:00,45.7,42.0,29.85,South,179,6.9,9.6,87,0.00,,---,0.00,VWS V13.01,2013-10-19 12:28:00,
2013-10-19 08:33:00,45.5,41.6,29.85,SW,227,5.8,8.7,86,0.00,,---,0.00,VWS V13.01,2013-10-19 12:33:00,
2013-10-19 08:38:00,45.5,41.9,29.85,SSW,196,6.7,7.4,87,0.00,,---,0.00,VWS V13.01,2013-10-19 12:38:00,
2013-10-19 08:43:00,45.3,41.7,29.85,SW,215,6.9,7.8,87,0.00,,---,0.00,VWS V13.01,2013-10-19 12:43:00,
2013-10-19 08:48:00,45.5,41.6,29.85,South,179,7.4,7.8,86,0.00,,---,0.00,VWS V13.01,2013-10-19 12:48:00,
2013-10-19 08:53:00,45.5,41.9,29.85,SSW,194,7.4,8.7,87,0.00,,---,0.00,VWS V13.01,2013-10-19 12:53:00,
2013-10-19 08:58:00,45.5,41.6,29.85,SSW,196,5.4,7.4,86,0.00,,---,0.00,VWS V13.01,2013-10-19 12:58:00,
2013-10-19 09:03:00,45.7,41.7,29.85,SSW,196,5.8,6.3,86,0.00,,---,0.00,VWS V13.01,2013-10-19 13:03:00,
2013-10-19 09:08:00,45.5,41.9,29.85,SW,216,9.2,10.1,87,0.00,,---,0.00,VWS V13.01,2013-10-19 13:08:00,
2013-10-19 09:13:00,45.1,41.2,29.85,South,186,6.9,9.6,86,0.00,,---,0.00,VWS V13.01,2013-10-19 13:13:00,
2013-10-19 09:18:00,45.0,41.0,29.85,SSE,156,10.1,10.1,86,0.00,,---,0.00,VWS V13.01,2013-10-19 13:18:00,
2013-10-19 09:23:00,44.8,40.5,29.85,South,187,6.9,8.7,85,0.00,,---,0.00,VWS V13.01,2013-10-19 13:23:00,
2013-10-19 09:28:00,44.6,40.1,29.85,SSW,195,6.9,8.3,84,0.00,,---,0.00,VWS V13.01,2013-10-19 13:28:00,
2013-10-19 09:33:00,44.6,40.1,29.85,SW,215,6.9,7.8,84,0.00,,---,0.00,VWS V13.01,2013-10-19 13:33:00,
2013-10-19 09:38:00,44.6,40.1,29.85,South,180,8.3,10.1,84,0.00,,---,0.00,VWS V13.01,2013-10-19 13:38:00,
2013-10-19 09:43:00,44.6,40.1,29.85,South,182,7.8,7.8,84,0.00,,---,0.00,VWS V13.01,2013-10-19 13:43:00,
2013-10-19 09:48:00,44.8,40.2,29.85,South,178,7.8,7.8,84,0.00,,---,0.00,VWS V13.01,2013-10-19 13:48:00,
2013-10-19 09:53:00,44.8,40.2,29.85,South,181,6.7,9.6,84,0.00,,---,0.00,VWS V13.01,2013-10-19 13:53:00,
2013-10-19 09:58:00,44.6,40.1,29.85,South,171,7.8,10.1,84,0.00,,---,0.00,VWS V13.01,2013-10-19 13:58:00,
2013-10-19 10:03:00,44.6,39.8,29.85,SSW,198,10.5,10.5,83,0.00,,---,0.00,VWS V13.01,2013-10-19 14:03:00,
2013-10-19 10:08:00,44.6,39.8,29.85,SSW,201,11.0,11.0,83,0.00,,---,0.00,VWS V13.01,2013-10-19 14:08:00,
2013-10-19 10:13:00,44.4,39.6,29.85,SW,232,5.8,8.3,83,0.00,,---,0.00,VWS V13.01,2013-10-19 14:13:00,
2013-10-19 10:18:00,44.6,39.8,29.85,SW,216,10.1,12.1,83,0.00,,---,0.00,VWS V13.01,2013-10-19 14:18:00,
2013-10-19 10:23:00,44.6,39.8,29.85,South,191,5.4,7.8,83,0.00,,---,0.00,VWS V13.01,2013-10-19 14:23:00,
2013-10-19 10:28:00,44.8,39.9,29.85,SSW,198,6.7,7.4,83,0.00,,---,0.00,VWS V13.01,2013-10-19 14:28:00,
2013-10-19 10:33:00,44.8,39.9,29.85,SSW,203,4.5,6.9,83,0.00,,---,0.00,VWS V13.01,2013-10-19 14:33:00,
2013-10-19 10:38:00,44.8,39.9,29.85,SSW,210,3.6,6.7,83,0.00,,---,0.00,VWS V13.01,2013-10-19 14:38:00,
2013-10-19 10:43:00,45.0,40.1,29.85,South,181,5.4,8.3,83,0.00,,---,0.00,VWS V13.01,2013-10-19 14:43:00,
2013-10-19 10:48:00,45.0,40.1,29.85,SSW,210,7.8,7.8,83,0.00,,---,0.00,VWS V13.01,2013-10-19 14:48:00,
2013-10-19 10:53:00,45.1,40.0,29.85,SSW,212,5.4,7.4,82,0.00,,---,0.00,VWS V13.01,2013-10-19 14:53:00,
2013-10-19 10:58:00,45.3,40.2,29.85,SSW,211,4.9,9.6,82,0.00,,---,0.00,VWS V13.01,2013-10-19 14:58:00,
2013-10-19 11:03:00,45.3,40.2,29.85,SSE,168,10.1,10.1,82,0.00,,---,0.00,VWS V13.01,2013-10-19 15:03:00,
2013-10-19 11:09:00,45.0,39.5,29.85,SSW,200,5.8,7.8,81,0.00,,---,0.00,VWS V13.01,2013-10-19 15:09:00,
2013-10-19 11:14:00,45.0,39.5,29.85,SW,216,4.9,7.8,81,0.00,,---,0.00,VWS V13.01,2013-10-19 15:14:00,
2013-10-19 11:19:00,45.0,39.8,29.85,South,185,5.8,6.3,82,0.00,,---,0.00,VWS V13.01,2013-10-19 15:19:00,
2013-10-19 11:24:00,45.0,39.8,29.85,SW,228,4.0,6.9,82,0.00,,---,0.00,VWS V13.01,2013-10-19 15:24:00,
2013-10-19 11:29:00,45.0,39.8,29.85,South,189,6.7,6.9,82,0.00,,---,0.00,VWS V13.01,2013-10-19 15:29:00,
2013-10-19 11:34:00,44.8,39.6,29.85,SSW,205,5.4,8.3,82,0.00,,---,0.00,VWS V13.01,2013-10-19 15:34:00,
2013-10-19 11:39:00,44.8,39.6,29.85,SW,223,6.7,7.8,82,0.00,,---,0.00,VWS V13.01,2013-10-19 15:39:00,
2013-10-19 11:44:00,44.8,39.6,29.85,SW,216,6.3,6.7,82,0.00,,---,0.00,VWS V13.01,2013-10-19 15:44:00,
2013-10-19 11:49:00,44.8,39.6,29.85,South,188,5.8,6.9,82,0.00,,---,0.00,VWS V13.01,2013-10-19 15:49:00,
2013-10-19 11:54:00,44.8,39.9,29.85,South,190,5.8,8.7,83,0.00,,---,0.00,VWS V13.01,2013-10-19 15:54:00,
2013-10-19 11:59:00,45.0,40.1,29.85,South,178,5.8,6.7,83,0.00,,---,0.00,VWS V13.01,2013-10-19 15:59:00,
2013-10-19 12:04:00,45.1,40.3,29.85,South,184,8.3,8.3,83,0.00,,---,0.00,VWS V13.01,2013-10-19 16:04:00,
2013-10-19 12:09:00,45.1,40.3,29.85,SSW,197,4.9,6.3,83,0.00,,---,0.00,VWS V13.01,2013-10-19 16:09:00,
2013-10-19 12:14:00,45.1,40.3,29.85,SSW,198,3.6,5.8,83,0.00,,---,0.00,VWS V13.01,2013-10-19 16:14:00,
2013-10-19 12:19:00,45.3,40.5,29.85,SSW,192,3.6,4.0,83,0.00,,---,0.00,VWS V13.01,2013-10-19 16:19:00,
2013-10-19 12:24:00,45.5,40.7,29.85,SSW,195,0.0,0.0,83,0.00,,---,0.00,VWS V13.01,2013-10-19 16:24:00,
2013-10-19 12:29:00,45.9,41.0,29.85,SSW,195,0.0,4.0,83,0.00,,---,0.00,VWS V13.01,2013-10-19 16:29:00,
2013-10-19 12:34:00,46.0,41.2,29.85,SSW,195,0.0,0.0,83,0.00,,---,0.00,VWS V13.01,2013-10-19 16:34:00,
2013-10-19 12:39:00,46.2,41.3,29.85,SSW,203,7.4,8.3,83,0.00,,---,0.00,VWS V13.01,2013-10-19 16:39:00,
2013-10-19 12:44:00,46.4,41.2,29.85,South,178,2.7,5.8,82,0.00,,---,0.00,VWS V13.01,2013-10-19 16:44:00,
2013-10-19 12:49:00,47.1,42.2,29.82,South,186,4.9,6.7,83,0.00,,---,0.00,VWS V13.01,2013-10-19 16:49:00,
2013-10-19 12:54:00,47.7,42.4,29.82,South,182,6.3,6.3,82,0.00,,---,0.00,VWS V13.01,2013-10-19 16:54:00,
2013-10-19 12:59:00,48.0,42.5,29.82,South,178,8.3,8.3,81,0.00,,---,0.00,VWS V13.01,2013-10-19 16:59:00,
2013-10-19 13:04:00,48.4,42.8,29.82,SSW,207,4.9,7.4,81,0.00,,---,0.00,VWS V13.01,2013-10-19 17:04:00,
2013-10-19 13:09:00,48.4,42.2,29.82,SSE,159,3.6,6.7,79,0.00,,---,0.00,VWS V13.01,2013-10-19 17:09:00,
2013-10-19 13:14:00,48.4,41.2,29.82,SSW,201,4.5,9.6,76,0.00,,---,0.00,VWS V13.01,2013-10-19 17:14:00,
2013-10-19 13:19:00,48.7,41.2,29.82,South,179,9.6,11.0,75,0.00,,---,0.00,VWS V13.01,2013-10-19 17:19:00,
2013-10-19 13:24:00,49.6,41.7,29.82,SW,215,7.8,11.2,74,0.00,,---,0.00,VWS V13.01,2013-10-19 17:24:00,
2013-10-19 13:29:00,50.2,41.5,29.82,SSW,199,6.7,12.1,72,0.00,,---,0.00,VWS V13.01,2013-10-19 17:29:00,
2013-10-19 13:34:00,51.3,42.2,29.82,SW,235,6.9,8.3,71,0.00,,---,0.00,VWS V13.01,2013-10-19 17:34:00,
2013-10-19 13:39:00,51.6,40.7,29.82,South,171,5.8,9.2,66,0.00,,---,0.00,VWS V13.01,2013-10-19 17:39:00,
2013-10-19 13:44:00,52.5,40.7,29.82,South,172,5.4,8.7,64,0.00,,---,0.00,VWS V13.01,2013-10-19 17:44:00,
2013-10-19 13:49:00,52.5,38.2,29.82,South,189,9.2,10.1,58,0.00,,---,0.00,VWS V13.01,2013-10-19 17:49:00,
2013-10-19 13:54:00,52.9,38.1,29.82,South,177,4.5,9.2,57,0.00,,---,0.00,VWS V13.01,2013-10-19 17:54:00,
2013-10-19 13:59:00,53.2,38.4,29.82,South,177,4.0,9.2,57,0.00,,---,0.00,VWS V13.01,2013-10-19 17:59:00,
2013-10-19 14:04:00,54.0,38.2,29.79,SSW,210,10.5,13.9,55,0.00,,---,0.00,VWS V13.01,2013-10-19 18:04:00,
2013-10-19 14:09:00,53.6,34.9,29.79,SSE,163,7.4,11.0,49,0.00,,---,0.00,VWS V13.01,2013-10-19 18:09:00,
2013-10-19 14:14:00,54.5,34.2,29.79,SSW,199,5.8,12.5,46,0.00,,---,0.00,VWS V13.01,2013-10-19 18:14:00,
2013-10-19 14:19:00,54.3,29.3,29.79,SSE,167,12.5,15.9,38,0.00,,---,0.00,VWS V13.01,2013-10-19 18:19:00,
2013-10-19 14:24:00,54.5,28.1,29.79,South,173,13.9,17.2,36,0.00,,---,0.00,VWS V13.01,2013-10-19 18:24:00,
2013-10-19 14:30:00,54.1,27.1,29.79,SW,218,11.6,15.9,35,0.00,,---,0.00,VWS V13.01,2013-10-19 18:30:00,
2013-10-19 14:35:00,54.9,27.0,29.79,SW,226,10.1,12.5,34,0.00,,---,0.00,VWS V13.01,2013-10-19 18:35:00,
2013-10-19 14:40:00,54.0,23.2,29.79,SE,132,11.0,18.6,30,0.00,,---,0.00,VWS V13.01,2013-10-19 18:40:00,
2013-10-19 14:45:00,54.0,24.0,29.79,SSW,212,11.6,15.2,31,0.00,,---,0.00,VWS V13.01,2013-10-19 18:45:00,
2013-10-19 14:50:00,53.4,24.3,29.79,SSE,156,4.5,6.3,32,0.00,,---,0.00,VWS V13.01,2013-10-19 18:50:00,
2013-10-19 14:55:00,53.1,24.7,29.79,WNW,295,6.7,7.8,33,0.00,,---,0.00,VWS V13.01,2013-10-19 18:55:00,
2013-10-19 15:00:00,54.3,25.9,29.79,WSW,240,5.4,12.1,33,0.00,,---,0.00,VWS V13.01,2013-10-19 19:00:00,
2013-10-19 15:06:00,54.1,24.2,29.79,WSW,237,10.5,10.5,31,0.00,,---,0.00,VWS V13.01,2013-10-19 19:06:00,
2013-10-19 15:11:00,54.1,23.4,29.79,WNW,284,6.7,8.3,30,0.00,,---,0.00,VWS V13.01,2013-10-19 19:11:00,
2013-10-19 15:16:00,55.9,23.3,29.79,WSW,252,6.7,9.6,28,0.00,,---,0.00,VWS V13.01,2013-10-19 19:16:00,
2013-10-19 15:21:00,56.7,23.1,29.79,WSW,240,4.9,7.4,27,0.00,,---,0.00,VWS V13.01,2013-10-19 19:21:00,
2013-10-19 15:26:00,57.7,24.0,29.79,WNW,285,13.9,13.9,27,0.00,,---,0.00,VWS V13.01,2013-10-19 19:26:00,
2013-10-19 15:31:00,57.9,22.3,29.79,West,263,6.3,11.2,25,0.00,,---,0.00,VWS V13.01,2013-10-19 19:31:00,
2013-10-19 15:36:00,57.6,22.0,29.79,SW,229,13.4,17.2,25,0.00,,---,0.00,VWS V13.01,2013-10-19 19:36:00,
2013-10-19 15:41:00,58.3,22.6,29.79,South,182,12.1,13.0,25,0.00,,---,0.00,VWS V13.01,2013-10-19 19:41:00,
2013-10-19 15:46:00,57.2,21.7,29.79,SW,223,8.7,16.3,25,0.00,,---,0.00,VWS V13.01,2013-10-19 19:46:00,
2013-10-19 15:51:00,55.9,20.6,29.79,SSW,206,6.9,15.2,25,0.00,,---,0.00,VWS V13.01,2013-10-19 19:51:00,
2013-10-19 15:56:00,55.6,20.3,29.79,SW,218,7.4,9.2,25,0.00,,---,0.00,VWS V13.01,2013-10-19 19:56:00,
2013-10-19 16:01:00,56.7,21.3,29.79,SSW,194,5.8,6.7,25,0.00,,---,0.00,VWS V13.01,2013-10-19 20:01:00,
2013-10-19 16:06:00,56.5,21.1,29.79,SW,214,6.7,9.2,25,0.00,,---,0.00,VWS V13.01,2013-10-19 20:06:00,
2013-10-19 16:11:00,57.6,22.0,29.79,SSW,195,4.5,6.7,25,0.00,,---,0.00,VWS V13.01,2013-10-19 20:11:00,
2013-10-19 16:16:00,59.2,23.4,29.79,SW,221,9.6,15.4,25,0.00,,---,0.00,VWS V13.01,2013-10-19 20:16:00,
2013-10-19 16:21:00,58.6,22.0,29.79,SW,217,10.5,14.8,24,0.00,,---,0.00,VWS V13.01,2013-10-19 20:21:00,
2013-10-19 16:26:00,57.0,21.6,29.79,South,182,8.7,17.2,25,0.00,,---,0.00,VWS V13.01,2013-10-19 20:26:00,
2013-10-19 16:31:00,55.8,20.5,29.79,SSE,166,13.0,16.3,25,0.00,,---,0.00,VWS V13.01,2013-10-19 20:31:00,
2013-10-19 16:36:00,56.1,20.8,29.79,SSW,197,12.5,12.5,25,0.00,,---,0.00,VWS V13.01,2013-10-19 20:36:00,
2013-10-19 16:41:00,56.7,21.3,29.79,SW,229,12.1,12.1,25,0.00,,---,0.00,VWS V13.01,2013-10-19 20:41:00,
2013-10-19 16:46:00,57.6,22.0,29.79,SSW,195,13.4,13.4,25,0.00,,---,0.00,VWS V13.01,2013-10-19 20:46:00,
2013-10-19 16:51:00,58.3,22.6,29.79,South,171,13.9,15.2,25,0.00,,---,0.00,VWS V13.01,2013-10-19 20:51:00,
2013-10-19 16:56:00,58.5,22.8,29.79,SSW,195,17.2,17.2,25,0.00,,---,0.00,VWS V13.01,2013-10-19 20:56:00,
2013-10-19 17:01:00,59.2,23.4,29.79,SW,226,8.3,10.5,25,0.00,,---,0.00,VWS V13.01,2013-10-19 21:01:00,
2013-10-19 17:06:00,56.3,21.9,29.79,SSE,167,14.8,17.2,26,0.00,,---,0.00,VWS V13.01,2013-10-19 21:06:00,
2013-10-19 17:11:00,54.3,21.9,29.79,SSW,195,11.2,12.1,28,0.00,,---,0.00,VWS V13.01,2013-10-19 21:11:00,
2013-10-19 17:16:00,53.2,22.6,29.79,SSW,192,13.9,13.9,30,0.00,,---,0.00,VWS V13.01,2013-10-19 21:16:00,
2013-10-19 17:21:00,54.9,24.8,29.79,SSW,205,6.3,10.5,31,0.00,,---,0.00,VWS V13.01,2013-10-19 21:21:00,
2013-10-19 17:26:00,58.6,25.6,29.79,SW,215,10.5,13.4,28,0.00,,---,0.00,VWS V13.01,2013-10-19 21:26:00,
2013-10-19 17:31:00,59.7,24.8,29.79,SSW,201,16.3,18.1,26,0.00,,---,0.00,VWS V13.01,2013-10-19 21:31:00,
2013-10-19 17:36:00,59.0,24.2,29.79,South,176,8.3,12.5,26,0.00,,---,0.00,VWS V13.01,2013-10-19 21:36:00,
2013-10-19 17:41:00,56.5,22.9,29.79,SSW,209,6.7,9.2,27,0.00,,---,0.00,VWS V13.01,2013-10-19 21:41:00,
2013-10-19 17:46:00,55.2,23.5,29.79,South,170,8.3,12.1,29,0.00,,---,0.00,VWS V13.01,2013-10-19 21:46:00,
2013-10-19 17:51:00,52.9,23.9,29.79,SSW,197,9.6,9.6,32,0.00,,---,0.00,VWS V13.01,2013-10-19 21:51:00,
2013-10-19 17:56:00,52.5,26.4,29.79,South,181,9.6,11.2,36,0.00,,---,0.00,VWS V13.01,2013-10-19 21:56:00,
2013-10-19 18:01:00,53.1,26.1,29.79,SSW,199,9.2,11.2,35,0.00,,---,0.00,VWS V13.01,2013-10-19 22:01:00,
2013-10-19 18:06:00,53.4,26.5,29.79,SSW,202,5.4,10.1,35,0.00,,---,0.00,VWS V13.01,2013-10-19 22:06:00,
2013-10-19 18:11:00,56.7,27.9,29.79,SSW,206,3.6,8.7,33,0.00,,---,0.00,VWS V13.01,2013-10-19 22:11:00,
2013-10-19 18:16:00,55.4,25.3,29.82,SW,223,6.7,9.6,31,0.00,,---,0.00,VWS V13.01,2013-10-19 22:16:00,
2013-10-19 18:21:00,53.2,24.2,29.82,SSW,192,10.5,14.3,32,0.00,,---,0.00,VWS V13.01,2013-10-19 22:21:00,
2013-10-19 18:26:00,51.6,25.6,29.82,SSW,195,12.1,12.1,36,0.00,,---,0.00,VWS V13.01,2013-10-19 22:26:00,
2013-10-19 18:31:00,51.1,25.1,29.82,SSW,196,6.9,12.5,36,0.00,,---,0.00,VWS V13.01,2013-10-19 22:31:00,
2013-10-19 18:36:00,50.5,25.2,29.82,South,181,10.1,14.8,37,0.00,,---,0.00,VWS V13.01,2013-10-19 22:36:00,
2013-10-19 18:41:00,50.2,25.6,29.82,SW,229,9.2,12.1,38,0.00,,---,0.00,VWS V13.01,2013-10-19 22:41:00,
2013-10-19 18:46:00,50.2,25.6,29.82,SW,217,6.7,8.3,38,0.00,,---,0.00,VWS V13.01,2013-10-19 22:46:00,
2013-10-19 18:51:00,50.2,25.6,29.82,ESE,109,6.9,8.3,38,0.00,,---,0.00,VWS V13.01,2013-10-19 22:51:00,
2013-10-19 18:56:00,49.8,25.9,29.82,South,179,8.3,8.3,39,0.00,,---,0.00,VWS V13.01,2013-10-19 22:56:00,
2013-10-19 19:01:00,49.6,25.7,29.82,SSW,192,4.9,7.8,39,0.00,,---,0.00,VWS V13.01,2013-10-19 23:01:00,
2013-10-19 19:06:00,49.3,25.4,29.82,South,177,4.9,7.4,39,0.00,,---,0.00,VWS V13.01,2013-10-19 23:06:00,
2013-10-19 19:11:00,48.9,26.3,29.82,South,178,5.4,7.4,41,0.00,,---,0.00,VWS V13.01,2013-10-19 23:11:00,
2013-10-19 19:16:00,48.9,26.3,29.82,SW,217,2.7,5.4,41,0.00,,---,0.00,VWS V13.01,2013-10-19 23:16:00,
2013-10-19 19:21:00,48.7,26.7,29.82,SSW,204,3.6,5.4,42,0.00,,---,0.00,VWS V13.01,2013-10-19 23:21:00,
2013-10-19 19:26:00,48.6,26.5,29.82,SSW,203,3.6,4.5,42,0.00,,---,0.00,VWS V13.01,2013-10-19 23:26:00,
2013-10-19 19:31:00,48.4,26.9,29.82,SSW,204,3.6,5.8,43,0.00,,---,0.00,VWS V13.01,2013-10-19 23:31:00,
2013-10-19 19:36:00,48.0,27.2,29.82,SSW,204,0.0,3.1,44,0.00,,---,0.00,VWS V13.01,2013-10-19 23:36:00,
2013-10-19 19:41:00,48.4,28.6,29.82,SSW,204,0.0,0.0,46,0.00,,---,0.00,VWS V13.01,2013-10-19 23:41:00,
2013-10-19 19:46:00,48.4,28.6,29.82,SSW,204,0.0,0.0,46,0.00,,---,0.00,VWS V13.01,2013-10-19 23:46:00,
2013-10-19 19:51:00,48.0,27.7,29.82,SSW,204,0.0,0.0,45,0.00,,---,0.00,VWS V13.01,2013-10-19 23:51:00,
2013-10-19 19:56:00,47.5,27.2,29.82,SSW,204,0.0,3.1,45,0.00,,---,0.00,VWS V13.01,2013-10-19 23:56:00,
2013-10-19 20:01:00,47.3,28.6,29.82,SSW,204,0.0,0.0,48,0.00,,---,0.00,VWS V13.01,2013-10-20 00:01:00,
2013-10-19 20:06:00,46.8,28.1,29.82,SSW,204,0.0,0.0,48,0.00,,---,0.00,VWS V13.01,2013-10-20 00:06:00,
2013-10-19 20:11:00,46.6,28.0,29.82,SSW,204,4.0,4.5,48,0.00,,---,0.00,VWS V13.01,2013-10-20 00:11:00,
2013-10-19 20:16:00,46.6,28.5,29.85,SSW,204,3.1,4.0,49,0.00,,---,0.00,VWS V13.01,2013-10-20 00:16:00,
2013-10-19 20:21:00,46.4,28.3,29.85,SSW,204,2.7,4.5,49,0.00,,---,0.00,VWS V13.01,2013-10-20 00:21:00,
2013-10-19 20:26:00,46.2,28.1,29.85,SSW,204,0.0,3.6,49,0.00,,---,0.00,VWS V13.01,2013-10-20 00:26:00,
2013-10-19 20:31:00,46.0,28.5,29.85,SSW,204,3.6,3.6,50,0.00,,---,0.00,VWS V13.01,2013-10-20 00:31:00,
2013-10-19 20:36:00,45.9,28.3,29.85,SSW,204,2.7,4.5,50,0.00,,---,0.00,VWS V13.01,2013-10-20 00:36:00,
2013-10-19 20:41:00,45.7,28.1,29.85,SSW,204,2.7,4.0,50,0.00,,---,0.00,VWS V13.01,2013-10-20 00:41:00,
2013-10-19 20:46:00,45.5,28.4,29.85,SSW,204,3.6,4.5,51,0.00,,---,0.00,VWS V13.01,2013-10-20 00:46:00,
2013-10-19 20:51:00,45.3,28.3,29.85,SSW,204,2.7,4.5,51,0.00,,---,0.00,VWS V13.01,2013-10-20 00:51:00,
2013-10-19 20:56:00,45.1,28.6,29.85,SSW,205,3.1,4.5,52,0.00,,---,0.00,VWS V13.01,2013-10-20 00:56:00,
2013-10-19 21:01:00,45.0,28.4,29.85,South,177,4.0,4.5,52,0.00,,---,0.00,VWS V13.01,2013-10-20 01:01:00,
2013-10-19 21:06:00,44.6,28.1,29.85,SSW,194,6.3,6.9,52,0.00,,---,0.00,VWS V13.01,2013-10-20 01:06:00,
2013-10-19 21:11:00,44.6,29.0,29.85,South,182,5.8,6.7,54,0.00,,---,0.00,VWS V13.01,2013-10-20 01:11:00,
2013-10-19 21:16:00,44.6,29.0,29.85,SSW,211,4.9,6.7,54,0.00,,---,0.00,VWS V13.01,2013-10-20 01:16:00,
2013-10-19 21:21:00,44.6,29.5,29.85,South,190,4.5,6.7,55,0.00,,---,0.00,VWS V13.01,2013-10-20 01:21:00,
2013-10-19 21:26:00,44.8,29.6,29.85,South,188,7.4,7.8,55,0.00,,---,0.00,VWS V13.01,2013-10-20 01:26:00,
2013-10-19 21:31:00,45.0,29.8,29.85,South,179,6.3,9.2,55,0.00,,---,0.00,VWS V13.01,2013-10-20 01:31:00,
2013-10-19 21:36:00,45.3,29.2,29.85,SW,227,5.4,15.2,53,0.00,,---,0.00,VWS V13.01,2013-10-20 01:36:00,
2013-10-19 21:41:00,45.9,29.2,29.85,SSE,161,4.9,7.8,52,0.00,,---,0.00,VWS V13.01,2013-10-20 01:41:00,
2013-10-19 21:46:00,45.9,29.7,29.85,South,175,9.6,10.5,53,0.00,,---,0.00,VWS V13.01,2013-10-20 01:46:00,
2013-10-19 21:52:00,45.9,29.7,29.85,SSW,198,4.0,8.3,53,0.00,,---,0.00,VWS V13.01,2013-10-20 01:52:00,
2013-10-19 21:57:00,46.0,30.8,29.85,SW,230,5.4,7.4,55,0.00,,---,0.00,VWS V13.01,2013-10-20 01:57:00,
2013-10-19 22:02:00,46.0,30.8,29.85,South,172,7.4,7.4,55,0.00,,---,0.00,VWS V13.01,2013-10-20 02:02:00,
2013-10-19 22:07:00,46.2,31.0,29.85,South,190,6.3,6.3,55,0.00,,---,0.00,VWS V13.01,2013-10-20 02:07:00,
2013-10-19 22:12:00,46.2,31.0,29.85,SW,216,3.6,5.8,55,0.00,,---,0.00,VWS V13.01,2013-10-20 02:12:00,
2013-10-19 22:17:00,46.4,31.1,29.85,SSW,205,4.9,6.3,55,0.00,,---,0.00,VWS V13.01,2013-10-20 02:17:00,
2013-10-19 22:22:00,46.0,30.8,29.85,SSW,211,3.6,4.9,55,0.00,,---,0.00,VWS V13.01,2013-10-20 02:22:00,
2013-10-19 22:27:00,45.9,30.6,29.85,SSW,211,5.4,5.4,55,0.00,,---,0.00,VWS V13.01,2013-10-20 02:27:00,
2013-10-19 22:32:00,45.7,30.9,29.85,SSW,211,4.0,5.8,56,0.00,,---,0.00,VWS V13.01,2013-10-20 02:32:00,
2013-10-19 22:37:00,45.7,31.3,29.85,South,176,4.0,5.8,57,0.00,,---,0.00,VWS V13.01,2013-10-20 02:37:00,
2013-10-19 22:42:00,45.7,31.3,29.85,South,173,2.7,7.4,57,0.00,,---,0.00,VWS V13.01,2013-10-20 02:42:00,
2013-10-19 22:47:00,45.7,32.2,29.85,SW,216,5.8,7.4,59,0.00,,---,0.00,VWS V13.01,2013-10-20 02:47:00,
2013-10-19 22:52:00,45.5,32.0,29.85,South,182,6.7,6.7,59,0.00,,---,0.00,VWS V13.01,2013-10-20 02:52:00,
2013-10-19 22:57:00,45.5,32.4,29.85,SSW,210,6.9,8.7,60,0.00,,---,0.00,VWS V13.01,2013-10-20 02:57:00,
2013-10-19 23:02:00,45.5,33.2,29.85,South,184,5.4,6.7,62,0.00,,---,0.00,VWS V13.01,2013-10-20 03:02:00,
2013-10-19 23:07:00,45.3,33.1,29.85,South,180,4.9,5.8,62,0.00,,---,0.00,VWS V13.01,2013-10-20 03:07:00,
2013-10-19 23:12:00,45.1,32.9,29.85,SSW,199,3.6,4.9,62,0.00,,---,0.00,VWS V13.01,2013-10-20 03:12:00,
2013-10-19 23:17:00,44.8,32.6,29.85,South,179,5.8,6.7,62,0.00,,---,0.00,VWS V13.01,2013-10-20 03:17:00,
2013-10-19 23:22:00,44.6,32.4,29.85,South,187,4.5,6.7,62,0.00,,---,0.00,VWS V13.01,2013-10-20 03:22:00,
2013-10-19 23:27:00,44.4,32.2,29.85,South,189,5.8,5.8,62,0.00,,---,0.00,VWS V13.01,2013-10-20 03:27:00,
2013-10-19 23:32:00,44.2,32.5,29.85,SSW,208,4.9,5.8,63,0.00,,---,0.00,VWS V13.01,2013-10-20 03:32:00,
2013-10-19 23:37:00,44.2,32.8,29.85,South,190,5.8,5.8,64,0.00,,---,0.00,VWS V13.01,2013-10-20 03:37:00,
2013-10-19 23:42:00,44.2,32.8,29.85,South,182,4.5,6.3,64,0.00,,---,0.00,VWS V13.01,2013-10-20 03:42:00,
2013-10-19 23:47:00,44.4,33.0,29.85,SSW,194,6.9,6.9,64,0.00,,---,0.00,VWS V13.01,2013-10-20 03:47:00,
2013-10-19 23:52:00,44.2,32.8,29.85,South,183,3.6,4.9,64,0.00,,---,0.00,VWS V13.01,2013-10-20 03:52:00,
2013-10-19 23:57:00,44.2,32.8,29.85,South,190,3.1,4.5,64,0.00,,---,0.00,VWS V13.01,2013-10-20 03:57:00,